createdAt,value
2018-10-16T00:02:11.020Z,10.90
2018-10-16T00:04:39.092Z,10.90
2018-10-16T00:07:07.285Z,10.90
2018-10-16T00:09:35.380Z,10.90
2018-10-16T00:12:05.553Z,10.80
2018-10-16T00:14:33.659Z,10.70
2018-10-16T00:17:02.724Z,10.70
2018-10-16T00:19:31.312Z,10.70
2018-10-16T00:21:59.432Z,10.70
2018-10-16T00:24:27.541Z,10.70
2018-10-16T00:26:55.652Z,10.70
2018-10-16T00:29:23.791Z,10.60
2018-10-16T00:31:51.892Z,10.50
2018-10-16T00:34:20.076Z,10.40
2018-10-16T00:36:48.119Z,10.40
2018-10-16T00:39:16.762Z,10.40
2018-10-16T00:41:49.384Z,10.30
2018-10-16T00:44:17.453Z,10.30
2018-10-16T00:46:45.517Z,10.10
2018-10-16T00:49:13.574Z,10.20
2018-10-16T00:51:41.639Z,10.30
2018-10-16T00:54:09.824Z,10.20
2018-10-16T00:56:38.212Z,10.20
2018-10-16T00:59:06.620Z,10.10
2018-10-16T01:01:34.993Z,10.00
2018-10-16T01:04:04.340Z,10.00
2018-10-16T01:06:33.215Z,9.90
2018-10-16T01:09:01.258Z,9.80
2018-10-16T01:11:29.390Z,9.70
2018-10-16T01:13:59.400Z,9.80
2018-10-16T01:16:27.525Z,9.80
2018-10-16T01:18:55.568Z,9.80
2018-10-16T01:21:23.665Z,9.70
2018-10-16T01:23:51.734Z,9.60
2018-10-16T01:26:19.802Z,9.50
2018-10-16T01:28:47.913Z,9.50
2018-10-16T01:31:16.001Z,9.40
2018-10-16T01:33:44.057Z,9.50
2018-10-16T01:36:12.183Z,9.40
2018-10-16T01:38:40.278Z,9.30
2018-10-16T01:41:09.576Z,9.30
2018-10-16T01:43:38.140Z,9.30
2018-10-16T01:46:06.401Z,9.20
2018-10-16T01:48:34.567Z,9.30
2018-10-16T01:51:02.642Z,9.30
2018-10-16T01:53:30.702Z,9.20
2018-10-16T01:55:58.840Z,9.20
2018-10-16T01:58:27.042Z,9.30
2018-10-16T02:00:55.173Z,9.10
2018-10-16T02:03:23.237Z,9.00
2018-10-16T02:05:51.417Z,9.10
2018-10-16T02:08:19.499Z,9.00
2018-10-16T02:10:47.556Z,8.90
2018-10-16T02:13:15.670Z,8.90
2018-10-16T02:15:43.754Z,9.00
2018-10-16T02:18:11.807Z,8.90
2018-10-16T02:20:40.192Z,8.80
2018-10-16T02:23:08.293Z,8.70
2018-10-16T02:25:36.444Z,8.70
2018-10-16T02:28:04.542Z,8.80
2018-10-16T02:30:32.602Z,8.70
2018-10-16T02:33:00.721Z,8.90
2018-10-16T02:35:28.776Z,9.00
2018-10-16T02:37:56.854Z,8.90
2018-10-16T02:40:24.950Z,8.80
2018-10-16T02:42:53.036Z,8.80
2018-10-16T02:45:21.103Z,8.70
2018-10-16T02:47:49.180Z,8.70
2018-10-16T02:50:17.235Z,8.70
2018-10-16T02:52:45.256Z,8.80
2018-10-16T02:55:13.408Z,8.80
2018-10-16T02:57:41.561Z,8.70
2018-10-16T03:00:09.702Z,8.60
2018-10-16T03:02:37.745Z,8.60
2018-10-16T03:05:05.863Z,8.70
2018-10-16T03:07:33.944Z,8.60
2018-10-16T03:10:02.025Z,8.60
2018-10-16T03:12:30.171Z,8.60
2018-10-16T03:14:58.281Z,8.40
2018-10-16T03:17:26.378Z,8.40
2018-10-16T03:19:54.434Z,8.30
2018-10-16T03:22:22.503Z,8.20
2018-10-16T03:24:50.616Z,8.30
2018-10-16T03:27:18.666Z,8.20
2018-10-16T03:29:46.762Z,8.10
2018-10-16T03:32:14.827Z,8.10
2018-10-16T03:34:42.909Z,8.10
2018-10-16T03:37:10.959Z,8.00
2018-10-16T03:39:39.024Z,8.00
2018-10-16T03:42:07.192Z,8.10
2018-10-16T03:44:35.271Z,8.10
2018-10-16T03:47:03.413Z,8.00
2018-10-16T03:49:31.463Z,7.90
2018-10-16T03:51:59.548Z,8.00
2018-10-16T03:54:27.577Z,7.90
2018-10-16T03:56:55.645Z,7.80
2018-10-16T03:59:23.721Z,7.80
2018-10-16T04:01:51.849Z,7.80
2018-10-16T04:04:19.888Z,7.80
2018-10-16T04:06:48.307Z,7.70
2018-10-16T04:09:16.365Z,7.70
2018-10-16T04:11:44.422Z,7.70
2018-10-16T04:14:12.581Z,7.60
2018-10-16T04:16:40.740Z,7.70
2018-10-16T04:19:08.808Z,7.80
2018-10-16T04:21:42.164Z,7.70
2018-10-16T04:24:10.301Z,7.60
2018-10-16T04:26:38.451Z,7.60
2018-10-16T04:29:06.935Z,7.60
2018-10-16T04:31:34.977Z,7.80
2018-10-16T04:34:03.326Z,7.90
2018-10-16T04:36:31.421Z,7.90
2018-10-16T04:38:59.512Z,7.80
2018-10-16T04:41:27.585Z,7.60
2018-10-16T04:43:57.558Z,7.60
2018-10-16T04:46:25.858Z,7.60
2018-10-16T04:48:53.951Z,7.70
2018-10-16T04:51:25.051Z,7.80
2018-10-16T04:53:53.089Z,7.70
2018-10-16T04:56:21.235Z,7.70
2018-10-16T04:58:49.275Z,7.70
2018-10-16T05:01:17.341Z,7.80
2018-10-16T05:03:45.430Z,7.80
2018-10-16T05:06:13.568Z,7.80
2018-10-16T05:08:41.737Z,7.70
2018-10-16T05:11:09.830Z,7.80
2018-10-16T05:13:37.865Z,7.80
2018-10-16T05:16:06.032Z,7.70
2018-10-16T05:18:34.118Z,7.60
2018-10-16T05:21:02.189Z,7.60
2018-10-16T05:23:30.281Z,7.60
2018-10-16T05:25:58.378Z,7.70
2018-10-16T05:28:26.479Z,7.70
2018-10-16T05:30:54.716Z,7.70
2018-10-16T05:33:22.746Z,7.70
2018-10-16T05:35:50.794Z,7.70
2018-10-16T05:38:18.848Z,7.70
2018-10-16T05:40:47.126Z,7.60
2018-10-16T05:43:15.205Z,7.70
2018-10-16T05:45:44.660Z,7.60
2018-10-16T05:48:12.718Z,7.60
2018-10-16T05:50:40.972Z,7.80
2018-10-16T05:53:09.098Z,7.90
2018-10-16T05:55:37.185Z,8.20
2018-10-16T05:58:05.697Z,8.40
2018-10-16T06:00:38.745Z,8.40
2018-10-16T06:03:06.910Z,8.50
2018-10-16T06:05:35.228Z,8.70
2018-10-16T06:08:03.399Z,8.70
2018-10-16T06:10:31.612Z,9.00
2018-10-16T06:12:59.862Z,9.30
2018-10-16T06:15:27.955Z,9.20
2018-10-16T06:17:56.232Z,9.30
2018-10-16T06:20:24.345Z,9.70
2018-10-16T06:22:52.431Z,9.70
2018-10-16T06:25:20.532Z,9.80
2018-10-16T06:27:48.735Z,10.10
2018-10-16T06:30:16.806Z,10.30
2018-10-16T06:32:44.899Z,10.60
2018-10-16T06:35:12.979Z,10.80
2018-10-16T06:37:41.067Z,11.00
2018-10-16T06:40:10.008Z,11.20
2018-10-16T06:42:38.475Z,11.40
2018-10-16T06:45:08.009Z,11.60
2018-10-16T06:47:36.191Z,11.80
2018-10-16T06:50:05.053Z,12.00
2018-10-16T06:52:33.140Z,12.30
2018-10-16T06:55:01.276Z,12.40
2018-10-16T06:57:29.315Z,12.70
2018-10-16T06:59:57.420Z,13.00
2018-10-16T07:02:25.526Z,13.00
2018-10-16T07:04:53.590Z,13.20
2018-10-16T07:07:21.774Z,13.30
2018-10-16T07:09:49.708Z,13.40
2018-10-16T07:12:17.825Z,13.70
2018-10-16T07:14:45.929Z,13.90
2018-10-16T07:17:13.996Z,13.70
2018-10-16T07:19:42.073Z,14.10
2018-10-16T07:22:11.366Z,14.40
2018-10-16T07:24:39.446Z,14.60
2018-10-16T07:27:07.544Z,14.80
2018-10-16T07:29:35.966Z,14.60
2018-10-16T07:32:04.762Z,14.70
2018-10-16T07:34:33.157Z,14.60
2018-10-16T07:37:01.256Z,14.80
2018-10-16T07:39:29.355Z,15.20
2018-10-16T07:41:57.451Z,15.60
2018-10-16T07:44:25.877Z,15.70
2018-10-16T07:46:54.031Z,15.90
2018-10-16T07:49:22.125Z,16.10
2018-10-16T07:51:51.041Z,15.80
2018-10-16T07:54:19.155Z,15.70
2018-10-16T07:56:47.371Z,15.90
2018-10-16T07:59:15.592Z,16.20
2018-10-16T08:01:43.645Z,16.20
2018-10-16T08:04:11.694Z,16.50
2018-10-16T08:06:39.854Z,16.60
2018-10-16T08:09:13.628Z,16.50
2018-10-16T08:11:43.710Z,16.90
2018-10-16T08:14:12.250Z,17.50
2018-10-16T08:16:40.310Z,17.30
2018-10-16T08:19:08.403Z,17.10
2018-10-16T08:21:36.473Z,17.80
2018-10-16T08:24:04.906Z,18.10
2018-10-16T08:26:33.097Z,17.90
2018-10-16T08:29:01.228Z,18.30
2018-10-16T08:31:29.441Z,19.20
2018-10-16T08:33:57.605Z,19.10
2018-10-16T08:36:25.831Z,19.50
2018-10-16T08:39:42.205Z,19.70
2018-10-16T08:43:21.953Z,19.80
2018-10-16T08:46:01.082Z,20.00
2018-10-16T08:48:40.342Z,19.60
2018-10-16T08:51:19.345Z,20.00
2018-10-16T08:53:47.500Z,20.20
2018-10-16T08:56:15.535Z,19.70
2018-10-16T08:58:43.568Z,19.60
2018-10-16T09:01:11.651Z,19.70
2018-10-16T09:03:39.769Z,19.10
2018-10-16T09:06:07.892Z,18.70
2018-10-16T09:08:35.956Z,18.70
2018-10-16T09:11:04.106Z,18.70
2018-10-16T09:13:32.180Z,19.20
2018-10-16T09:16:00.278Z,19.60
2018-10-16T09:18:28.413Z,19.70
2018-10-16T09:20:57.035Z,20.80
2018-10-16T09:23:25.134Z,21.00
2018-10-16T09:25:53.213Z,21.60
2018-10-16T09:28:21.257Z,22.30
2018-10-16T09:30:49.474Z,22.40
2018-10-16T09:33:17.532Z,22.10
2018-10-16T09:35:45.613Z,22.70
2018-10-16T09:38:13.837Z,23.20
2018-10-16T09:40:41.869Z,24.10
2018-10-16T09:43:09.990Z,22.80
2018-10-16T09:45:38.060Z,22.40
2018-10-16T09:48:06.132Z,23.10
2018-10-16T09:50:34.272Z,22.40
2018-10-16T09:53:02.446Z,22.60
2018-10-16T09:55:30.619Z,22.40
2018-10-16T09:57:58.734Z,22.60
2018-10-16T10:00:32.176Z,22.50
2018-10-16T10:03:00.263Z,23.00
2018-10-16T10:05:28.408Z,23.40
2018-10-16T10:07:56.522Z,23.10
2018-10-16T10:10:24.643Z,23.00
2018-10-16T10:12:52.686Z,23.50
2018-10-16T10:15:20.859Z,23.10
2018-10-16T10:17:48.969Z,22.10
2018-10-16T10:20:17.046Z,22.00
2018-10-16T10:22:45.139Z,22.00
2018-10-16T10:25:13.374Z,22.80
2018-10-16T10:27:41.448Z,23.00
2018-10-16T10:30:10.938Z,22.90
2018-10-16T10:32:39.005Z,22.80
2018-10-16T10:35:08.533Z,22.60
2018-10-16T10:37:36.667Z,21.70
2018-10-16T10:40:04.974Z,21.40
2018-10-16T10:42:33.059Z,21.20
2018-10-16T10:45:01.407Z,21.00
2018-10-16T10:47:29.535Z,20.70
2018-10-16T10:49:57.757Z,20.20
2018-10-16T10:52:25.879Z,20.50
2018-10-16T10:54:53.939Z,20.40
2018-10-16T10:57:22.066Z,20.50
2018-10-16T10:59:50.144Z,20.20
2018-10-16T11:02:18.256Z,20.80
2018-10-16T11:04:46.409Z,21.00
2018-10-16T11:07:15.215Z,20.80
2018-10-16T11:09:43.271Z,20.50
2018-10-16T11:12:11.976Z,20.40
2018-10-16T11:14:40.050Z,20.90
2018-10-16T11:17:08.174Z,21.30
2018-10-16T11:19:36.261Z,21.50
2018-10-16T11:22:04.384Z,21.80
2018-10-16T11:24:32.453Z,21.50
2018-10-16T11:27:00.587Z,21.50
2018-10-16T11:29:28.731Z,21.00
2018-10-16T11:31:56.773Z,21.00
2018-10-16T11:34:24.861Z,20.80
2018-10-16T11:36:52.950Z,20.30
2018-10-16T11:39:21.150Z,20.30
2018-10-16T11:41:49.250Z,20.20
2018-10-16T11:44:17.311Z,20.30
2018-10-16T11:46:45.413Z,21.20
2018-10-16T11:49:13.493Z,22.70
2018-10-16T11:51:41.643Z,22.90
2018-10-16T11:54:09.718Z,24.10
2018-10-16T11:56:38.058Z,25.20
2018-10-16T11:59:06.360Z,25.00
2018-10-16T12:01:34.450Z,25.20
2018-10-16T12:04:02.548Z,25.80
2018-10-16T12:06:30.621Z,25.80
2018-10-16T12:08:58.761Z,27.20
2018-10-16T12:11:26.885Z,26.80
2018-10-16T12:13:54.966Z,27.60
2018-10-16T12:16:27.200Z,27.80
2018-10-16T12:19:14.095Z,25.30
2018-10-16T12:21:42.992Z,25.10
2018-10-16T12:24:11.171Z,24.40
2018-10-16T12:26:39.225Z,25.00
2018-10-16T12:29:07.499Z,24.40
2018-10-16T12:31:35.565Z,24.30
2018-10-16T12:34:03.670Z,24.10
2018-10-16T12:36:31.748Z,24.00
2018-10-16T12:38:59.869Z,23.70
2018-10-16T12:41:27.918Z,23.50
2018-10-16T12:43:56.620Z,23.00
2018-10-16T12:46:25.511Z,21.90
2018-10-16T12:48:53.641Z,21.60
2018-10-16T12:51:21.775Z,21.20
2018-10-16T12:53:49.878Z,20.90
2018-10-16T12:56:18.036Z,21.10
2018-10-16T12:58:46.092Z,21.30
2018-10-16T13:01:14.170Z,21.50
2018-10-16T13:03:42.389Z,20.70
2018-10-16T13:06:10.436Z,20.50
2018-10-16T13:08:38.549Z,20.80
2018-10-16T13:11:06.756Z,21.30
2018-10-16T13:13:34.824Z,21.20
2018-10-16T13:16:03.008Z,21.30
2018-10-16T13:18:31.167Z,21.00
2018-10-16T13:20:59.247Z,20.80
2018-10-16T13:23:27.400Z,21.00
2018-10-16T13:25:55.681Z,21.20
2018-10-16T13:28:23.813Z,20.80
2018-10-16T13:30:51.926Z,20.80
2018-10-16T13:33:20.046Z,20.90
2018-10-16T13:35:48.100Z,21.20
2018-10-16T13:38:16.239Z,20.90
2018-10-16T13:40:44.309Z,21.10
2018-10-16T13:43:12.393Z,21.20
2018-10-16T13:45:40.462Z,20.70
2018-10-16T13:48:08.596Z,20.70
2018-10-16T13:50:36.687Z,20.40
2018-10-16T13:53:04.914Z,20.30
2018-10-16T13:55:32.943Z,20.30
2018-10-16T13:58:02.068Z,20.20
2018-10-16T14:00:30.102Z,20.40
2018-10-16T14:02:58.184Z,20.20
2018-10-16T14:05:26.360Z,20.10
2018-10-16T14:07:54.453Z,20.20
2018-10-16T14:10:23.272Z,20.00
2018-10-16T14:12:51.393Z,19.80
2018-10-16T14:15:19.481Z,19.70
2018-10-16T14:17:47.675Z,19.50
2018-10-16T14:20:15.850Z,19.60
2018-10-16T14:22:43.878Z,19.30
2018-10-16T14:25:13.224Z,19.10
2018-10-16T14:27:41.799Z,18.90
2018-10-16T14:30:11.716Z,19.10
2018-10-16T14:32:40.192Z,19.00
2018-10-16T14:35:09.120Z,19.00
2018-10-16T14:37:37.756Z,18.80
2018-10-16T14:40:06.964Z,18.80
2018-10-16T14:42:35.023Z,18.50
2018-10-16T14:45:03.113Z,18.40
2018-10-16T14:47:31.178Z,18.40
2018-10-16T14:49:59.266Z,18.20
2018-10-16T14:52:27.327Z,18.10
2018-10-16T14:54:55.468Z,17.90
2018-10-16T14:57:23.721Z,17.90
2018-10-16T14:59:51.890Z,17.80
2018-10-16T15:02:19.983Z,17.80
2018-10-16T15:04:48.038Z,17.90
2018-10-16T15:07:16.078Z,17.90
2018-10-16T15:09:44.302Z,17.80
2018-10-16T15:12:12.427Z,17.80
2018-10-16T15:14:40.524Z,17.70
2018-10-16T15:17:08.633Z,17.70
2018-10-16T15:19:36.711Z,17.60
2018-10-16T15:22:04.916Z,17.60
2018-10-16T15:24:33.019Z,17.50
2018-10-16T15:27:01.125Z,17.40
2018-10-16T15:29:29.227Z,17.30
2018-10-16T15:31:57.345Z,17.20
2018-10-16T15:34:25.429Z,17.10
2018-10-16T15:36:53.557Z,16.90
2018-10-16T15:39:21.658Z,16.80
2018-10-16T15:41:49.708Z,16.50
2018-10-16T15:44:17.840Z,16.30
2018-10-16T15:46:45.891Z,16.10
2018-10-16T15:49:14.065Z,16.00
2018-10-16T15:51:42.073Z,15.80
2018-10-16T15:54:10.256Z,15.80
2018-10-16T15:56:38.458Z,15.60
2018-10-16T15:59:06.595Z,15.50
2018-10-16T16:01:34.715Z,15.40
2018-10-16T16:04:02.878Z,15.30
2018-10-16T16:06:30.964Z,15.20
2018-10-16T16:08:59.190Z,15.10
2018-10-16T16:11:27.301Z,15.00
2018-10-16T16:13:55.406Z,14.90
2018-10-16T16:16:23.410Z,14.80
2018-10-16T16:18:51.467Z,14.70
2018-10-16T16:21:19.627Z,14.60
2018-10-16T16:23:47.713Z,14.50
2018-10-16T16:26:15.851Z,14.30
2018-10-16T16:28:44.026Z,14.20
2018-10-16T16:31:12.052Z,14.10
2018-10-16T16:33:40.092Z,14.10
2018-10-16T16:36:08.270Z,14.00
2018-10-16T16:38:36.342Z,13.90
2018-10-16T16:41:04.593Z,13.80
2018-10-16T16:43:32.733Z,13.70
2018-10-16T16:46:00.885Z,13.70
2018-10-16T16:48:29.022Z,13.60
2018-10-16T16:50:57.216Z,13.60
2018-10-16T16:53:25.295Z,13.50
2018-10-16T16:55:53.417Z,13.40
2018-10-16T16:58:21.503Z,13.40
2018-10-16T17:00:49.649Z,13.30
2018-10-16T17:03:17.719Z,13.20
2018-10-16T17:05:45.846Z,13.20
2018-10-16T17:08:13.940Z,13.20
2018-10-16T17:10:42.043Z,13.20
2018-10-16T17:13:10.133Z,13.10
2018-10-16T17:15:38.199Z,13.00
2018-10-16T17:18:06.364Z,13.00
2018-10-16T17:20:34.436Z,12.90
2018-10-16T17:23:02.498Z,13.00
2018-10-16T17:25:30.835Z,12.90
2018-10-16T17:27:58.741Z,12.80
2018-10-16T17:30:33.446Z,12.70
2018-10-16T17:33:01.645Z,12.60
2018-10-16T17:35:29.699Z,12.40
2018-10-16T17:37:57.829Z,12.50
2018-10-16T17:40:26.985Z,12.60
2018-10-16T17:42:55.161Z,12.40
2018-10-16T17:45:23.260Z,12.30
2018-10-16T17:47:51.481Z,12.30
2018-10-16T17:50:20.508Z,12.20
2018-10-16T17:52:48.580Z,12.20
2018-10-16T17:55:16.807Z,12.20
2018-10-16T17:57:44.920Z,12.20
2018-10-16T18:00:17.795Z,12.10
2018-10-16T18:02:46.093Z,12.00
2018-10-16T18:05:14.567Z,12.00
2018-10-16T18:07:43.568Z,11.90
2018-10-16T18:10:11.619Z,11.80
2018-10-16T18:12:39.789Z,12.00
2018-10-16T18:15:10.101Z,12.00
2018-10-16T18:17:38.309Z,12.00
2018-10-16T18:20:07.672Z,12.00
2018-10-16T18:22:35.704Z,11.90
2018-10-16T18:25:04.105Z,11.70
2018-10-16T18:27:32.249Z,11.70
2018-10-16T18:30:00.319Z,11.50
2018-10-16T18:32:28.373Z,11.40
2018-10-16T18:34:56.456Z,11.40
2018-10-16T18:37:24.700Z,11.40
2018-10-16T18:39:52.806Z,11.30
2018-10-16T18:42:21.161Z,11.40
2018-10-16T18:44:49.230Z,11.40
2018-10-16T18:47:17.405Z,11.30
2018-10-16T18:49:45.583Z,11.30
2018-10-16T18:52:13.661Z,11.30
2018-10-16T18:54:41.722Z,11.20
2018-10-16T18:57:10.753Z,11.10
2018-10-16T18:59:39.417Z,11.10
2018-10-16T19:02:07.548Z,11.00
2018-10-16T19:04:35.600Z,10.80
2018-10-16T19:07:03.730Z,10.80
2018-10-16T19:09:31.805Z,10.90
2018-10-16T19:11:59.902Z,10.80
2018-10-16T19:14:28.121Z,10.80
2018-10-16T19:16:56.193Z,10.80
2018-10-16T19:19:24.285Z,10.70
2018-10-16T19:21:52.319Z,10.70
2018-10-16T19:24:20.418Z,10.60
2018-10-16T19:26:48.503Z,10.60
2018-10-16T19:29:16.701Z,10.60
2018-10-16T19:31:44.816Z,10.50
2018-10-16T19:34:12.933Z,10.50
2018-10-16T19:36:41.033Z,10.40
2018-10-16T19:39:10.397Z,10.30
2018-10-16T19:41:38.701Z,10.30
2018-10-16T19:44:06.822Z,10.30
2018-10-16T19:46:34.963Z,10.20
2018-10-16T19:49:03.040Z,10.20
2018-10-16T19:51:31.072Z,10.30
2018-10-16T19:53:59.173Z,10.30
2018-10-16T19:56:27.293Z,10.30
2018-10-16T19:58:55.561Z,10.30
2018-10-16T20:01:23.625Z,10.30
2018-10-16T20:03:51.752Z,10.30
2018-10-16T20:06:19.856Z,10.20
2018-10-16T20:08:48.129Z,10.20
2018-10-16T20:11:16.291Z,10.10
2018-10-16T20:13:44.363Z,10.10
2018-10-16T20:16:12.467Z,10.10
2018-10-16T20:18:40.542Z,10.10
2018-10-16T20:21:09.550Z,10.10
2018-10-16T20:23:37.678Z,10.00
2018-10-16T20:26:05.880Z,10.00
2018-10-16T20:28:34.548Z,10.00
2018-10-16T20:31:02.700Z,10.00
2018-10-16T20:33:30.749Z,9.90
2018-10-16T20:35:58.895Z,9.90
2018-10-16T20:38:27.227Z,9.80
2018-10-16T20:40:56.490Z,9.80
2018-10-16T20:43:25.419Z,9.80
2018-10-16T20:45:53.612Z,9.80
2018-10-16T20:48:22.191Z,9.70
2018-10-16T20:50:50.286Z,9.70
2018-10-16T20:53:18.405Z,9.60
2018-10-16T20:55:46.598Z,9.60
2018-10-16T20:58:15.385Z,9.50
2018-10-16T21:00:44.309Z,9.50
2018-10-16T21:03:12.392Z,9.50
2018-10-16T21:05:40.644Z,9.60
2018-10-16T21:08:08.568Z,9.60
2018-10-16T21:10:36.691Z,9.50
2018-10-16T21:13:05.367Z,9.40
2018-10-16T21:15:33.426Z,9.40
2018-10-16T21:18:01.476Z,9.40
2018-10-16T21:20:29.559Z,9.30
2018-10-16T21:22:57.689Z,9.30
2018-10-16T21:25:25.728Z,9.20
2018-10-16T21:27:53.837Z,9.30
2018-10-16T21:30:22.009Z,9.30
2018-10-16T21:32:50.076Z,9.40
2018-10-16T21:35:18.247Z,9.30
2018-10-16T21:37:46.282Z,9.30
2018-10-16T21:40:14.412Z,9.30
2018-10-16T21:42:42.517Z,9.20
2018-10-16T21:45:10.657Z,9.20
2018-10-16T21:47:38.787Z,9.20
2018-10-16T21:50:06.934Z,9.20
2018-10-16T21:52:35.088Z,9.10
2018-10-16T21:55:03.231Z,9.10
2018-10-16T21:57:31.344Z,9.10
2018-10-16T21:59:59.471Z,9.10
2018-10-16T22:02:33.119Z,9.00
2018-10-16T22:05:01.318Z,9.00
2018-10-16T22:07:29.351Z,9.10
2018-10-16T22:09:57.474Z,9.10
2018-10-16T22:12:25.554Z,9.00
2018-10-16T22:14:53.627Z,9.00
2018-10-16T22:17:21.669Z,9.00
2018-10-16T22:19:49.783Z,8.90
2018-10-16T22:22:17.827Z,8.90
2018-10-16T22:24:45.945Z,8.90
2018-10-16T22:27:14.052Z,8.90
2018-10-16T22:29:42.309Z,8.80
2018-10-16T22:32:10.228Z,8.90
2018-10-16T22:34:38.345Z,8.80
2018-10-16T22:37:06.524Z,8.80
2018-10-16T22:39:34.606Z,8.80
2018-10-16T22:42:02.689Z,8.90
2018-10-16T22:44:30.896Z,8.80
2018-10-16T22:46:59.097Z,8.90
2018-10-16T22:49:27.134Z,8.90
2018-10-16T22:51:55.236Z,8.90
2018-10-16T22:54:23.346Z,8.90
2018-10-16T22:56:51.422Z,8.90
2018-10-16T22:59:19.484Z,8.90
2018-10-16T23:01:47.643Z,8.90
2018-10-16T23:04:15.714Z,8.90
2018-10-16T23:06:43.761Z,8.90
2018-10-16T23:09:11.894Z,8.90
2018-10-16T23:11:40.016Z,8.90
2018-10-16T23:14:08.104Z,8.90
2018-10-16T23:16:36.233Z,8.90
2018-10-16T23:19:04.344Z,9.00
2018-10-16T23:21:32.401Z,9.00
2018-10-16T23:24:00.552Z,9.00
2018-10-16T23:26:28.644Z,9.10
2018-10-16T23:28:56.759Z,9.10
2018-10-16T23:31:24.812Z,9.10
2018-10-16T23:33:52.920Z,9.10
2018-10-16T23:36:21.073Z,9.20
2018-10-16T23:38:49.120Z,9.20
2018-10-16T23:41:17.176Z,9.20
2018-10-16T23:43:45.327Z,9.20
2018-10-16T23:46:13.428Z,9.30
2018-10-16T23:48:41.501Z,9.30
2018-10-16T23:51:09.632Z,9.30
2018-10-16T23:53:37.682Z,9.30
2018-10-16T23:56:05.823Z,9.30
2018-10-16T23:58:34.158Z,9.40
